Time;durP1;ratioP1;P1;durP2;ratioP2;P2;SDS_P1;SDS_P2;PMS_P1;PMS_P2;Temp;Humidity;BMP_temperature;BMP_pressure;BME280_temperature;BME280_humidity;BME280_pressure;Samples;Min_cycle;Max_cycle;Signal;HPM_P1;HPM_P2
2020/12/04 00:01:37;;;;;;;1.15;1.00;;;7.20;99.90;;;;;;5052154;28;20024;-73
2020/12/04 00:04:02;;;;;;;2.53;0.80;;;7.20;99.90;;;;;;5050662;28;20028;-72
2020/12/04 00:06:28;;;;;;;1.77;1.10;;;7.20;99.90;;;;;;5053957;28;20528;-74
2020/12/04 00:08:54;;;;;;;1.35;1.10;;;7.20;99.90;;;;;;5050546;28;20083;-72
2020/12/04 00:11:20;;;;;;;1.25;0.80;;;7.20;99.90;;;;;;5046651;28;20020;-73
2020/12/04 00:13:46;;;;;;;0.70;0.60;;;7.20;99.90;;;;;;5049882;28;20032;-74
2020/12/04 00:16:12;;;;;;;1.38;1.10;;;7.30;99.90;;;;;;5050301;28;20036;-73
2020/12/04 00:18:37;;;;;;;2.00;1.00;;;7.30;99.90;;;;;;5051687;28;20029;-74
2020/12/04 00:21:03;;;;;;;1.92;0.95;;;7.30;99.90;;;;;;5051961;28;20389;-73
2020/12/04 00:23:29;;;;;;;3.50;2.00;;;7.30;99.90;;;;;;5053932;28;20213;-72
2020/12/04 00:25:55;;;;;;;3.72;1.40;;;7.20;99.90;;;;;;5050006;28;20048;-74
2020/12/04 00:28:20;;;;;;;3.95;1.80;;;7.30;99.90;;;;;;5050497;28;20025;-74
2020/12/04 00:30:46;;;;;;;6.72;3.33;;;7.30;99.90;;;;;;5055718;28;20512;-74
2020/12/04 00:33:12;;;;;;;1.92;1.33;;;7.30;99.90;;;;;;5051739;28;20041;-74
2020/12/04 00:35:37;;;;;;;2.35;1.65;;;7.30;99.90;;;;;;5050039;28;20021;-74
2020/12/04 00:38:03;;;;;;;2.38;1.80;;;7.20;99.90;;;;;;5051697;28;20025;-74
2020/12/04 00:40:29;;;;;;;1.70;1.23;;;7.30;99.90;;;;;;5051683;28;20458;-72
2020/12/04 00:42:54;;;;;;;0.88;0.82;;;7.30;99.90;;;;;;5056978;28;20036;-74
2020/12/04 00:45:20;;;;;;;1.08;0.98;;;7.30;99.90;;;;;;5049019;28;20092;-73
2020/12/04 00:47:45;;;;;;;0.70;0.60;;;7.30;99.90;;;;;;5052068;28;20032;-74
2020/12/04 00:50:11;;;;;;;0.73;0.73;;;7.30;99.90;;;;;;5052979;28;20025;-74
2020/12/04 00:52:36;;;;;;;1.00;0.63;;;7.40;99.90;;;;;;5048453;28;20037;-74
2020/12/04 00:55:02;;;;;;;0.60;0.57;;;7.40;99.90;;;;;;5054235;28;20048;-74
2020/12/04 00:57:28;;;;;;;1.05;0.77;;;7.40;99.90;;;;;;5052661;28;20051;-74
2020/12/04 00:59:53;;;;;;;0.75;0.70;;;7.30;99.90;;;;;;5057852;28;20033;-74
2020/12/04 01:02:19;;;;;;;0.80;0.60;;;7.30;99.90;;;;;;5054905;28;20021;-72
2020/12/04 01:04:44;;;;;;;2.17;0.52;;;7.40;99.90;;;;;;5053460;28;20438;-74
2020/12/04 01:07:10;;;;;;;0.70;0.50;;;7.30;99.90;;;;;;5052482;28;20548;-75
2020/12/04 01:09:35;;;;;;;0.55;0.50;;;7.40;99.90;;;;;;5056259;28;20029;-75
2020/12/04 01:12:03;;;;;;;0.77;0.77;;;7.40;99.90;;;;;;5052167;28;20508;-74
2020/12/04 01:14:29;;;;;;;0.50;0.50;;;7.40;99.90;;;;;;5063023;28;20028;-74
2020/12/04 01:16:54;;;;;;;0.68;0.47;;;7.40;99.90;;;;;;5051316;28;20028;-75
2020/12/04 01:19:20;;;;;;;0.60;0.50;;;7.40;99.90;;;;;;5056945;28;20029;-74
2020/12/04 01:21:49;;;;;;;0.60;0.60;;;7.50;99.90;;;;;;5058547;28;20024;-75
2020/12/04 01:24:15;;;;;;;0.45;0.40;;;7.40;99.90;;;;;;5051804;28;20032;-74
2020/12/04 01:26:42;;;;;;;0.50;0.50;;;7.40;99.90;;;;;;5048550;28;20555;-73
2020/12/04 01:29:08;;;;;;;0.60;0.60;;;7.40;99.90;;;;;;5055000;28;20035;-72
2020/12/04 01:31:33;;;;;;;0.35;0.35;;;7.40;99.90;;;;;;5054996;28;20029;-73
2020/12/04 01:34:00;;;;;;;0.77;0.60;;;7.40;99.90;;;;;;5063944;28;20082;-74
2020/12/04 01:36:29;;;;;;;0.60;0.57;;;7.50;99.90;;;;;;5053420;28;20089;-73
2020/12/04 01:38:55;;;;;;;0.40;0.40;;;7.50;99.90;;;;;;5055236;28;20036;-75
2020/12/04 01:41:21;;;;;;;0.38;0.38;;;7.50;99.90;;;;;;5053491;28;20033;-73
2020/12/04 01:43:47;;;;;;;0.85;0.35;;;7.40;99.90;;;;;;5053612;28;20049;-75
2020/12/04 01:46:14;;;;;;;0.75;0.47;;;7.40;99.90;;;;;;5052994;28;20017;-73
2020/12/04 01:48:39;;;;;;;0.77;0.40;;;7.30;99.90;;;;;;5058094;28;20029;-74
2020/12/04 01:51:05;;;;;;;0.50;0.30;;;7.40;99.90;;;;;;5061554;28;20021;-74
2020/12/04 01:53:32;;;;;;;1.70;0.47;;;7.30;99.90;;;;;;5052982;28;20044;-73
2020/12/04 01:55:58;;;;;;;0.50;0.50;;;7.30;99.90;;;;;;5051101;28;20416;-72
2020/12/04 01:58:24;;;;;;;0.50;0.30;;;7.30;99.90;;;;;;5053685;28;20029;-72
2020/12/04 02:00:49;;;;;;;0.47;0.35;;;7.40;99.90;;;;;;5056464;28;20435;-72
2020/12/04 02:03:16;;;;;;;0.50;0.40;;;7.30;99.90;;;;;;5054338;28;20074;-73
2020/12/04 02:05:53;;;;;;;2.05;0.40;;;7.50;99.90;;;;;;5052263;28;20489;-72
2020/12/04 02:08:42;;;;;;;0.20;0.20;;;7.50;99.90;;;;;;5053295;28;20477;-73
2020/12/04 02:11:20;;;;;;;0.52;0.40;;;7.40;99.90;;;;;;5053738;28;20110;-75
2020/12/04 02:13:48;;;;;;;1.17;0.50;;;7.40;99.90;;;;;;5051831;28;20033;-73
2020/12/04 02:16:20;;;;;;;0.35;0.30;;;7.50;99.90;;;;;;5056433;28;20013;-72
2020/12/04 02:18:47;;;;;;;0.63;0.30;;;7.50;99.90;;;;;;5052691;28;20078;-74
2020/12/04 02:21:13;;;;;;;0.40;0.40;;;7.50;99.90;;;;;;5052098;28;20021;-73
2020/12/04 02:23:49;;;;;;;0.43;0.43;;;7.60;99.90;;;;;;5052496;28;20029;-74
2020/12/04 02:26:18;;;;;;;0.65;0.30;;;7.60;99.90;;;;;;5049335;28;20492;-73
2020/12/04 02:28:45;;;;;;;0.68;0.40;;;7.60;99.90;;;;;;5051329;28;20123;-74
2020/12/04 02:31:10;;;;;;;0.35;0.30;;;7.60;99.90;;;;;;5051669;28;20017;-75
2020/12/04 02:33:36;;;;;;;0.20;0.20;;;7.60;99.90;;;;;;5056553;28;20048;-73
2020/12/04 02:36:05;;;;;;;1.65;0.47;;;7.70;99.90;;;;;;5059458;28;20017;-73
2020/12/04 02:38:31;;;;;;;0.70;0.30;;;7.70;99.90;;;;;;5052354;28;20033;-74
2020/12/04 02:40:57;;;;;;;0.38;0.30;;;7.70;99.90;;;;;;5056014;28;20032;-75
2020/12/04 02:43:23;;;;;;;0.55;0.40;;;7.70;99.90;;;;;;5052389;28;20398;-72
2020/12/04 02:45:49;;;;;;;1.60;0.10;;;7.70;99.90;;;;;;5051881;28;20033;-74
2020/12/04 02:48:15;;;;;;;0.28;0.28;;;7.70;99.90;;;;;;5051765;28;20032;-73
2020/12/04 02:50:41;;;;;;;0.25;0.22;;;7.70;99.90;;;;;;5051829;28;20033;-74
2020/12/04 02:53:07;;;;;;;0.40;0.40;;;7.70;99.90;;;;;;5052222;28;20439;-74
2020/12/04 02:55:33;;;;;;;0.28;0.25;;;7.70;99.90;;;;;;5049533;28;20029;-72
2020/12/04 02:57:59;;;;;;;0.35;0.22;;;7.70;99.90;;;;;;5054382;28;20033;-74
2020/12/04 03:00:25;;;;;;;0.10;0.10;;;7.80;99.90;;;;;;5051746;28;20025;-74
2020/12/04 03:02:50;;;;;;;0.30;0.10;;;7.80;99.90;;;;;;5054675;28;20036;-75
2020/12/04 03:05:16;;;;;;;0.30;0.10;;;7.80;99.90;;;;;;5062199;28;20025;-73
2020/12/04 03:07:41;;;;;;;0.52;0.30;;;7.80;99.90;;;;;;5053726;28;20579;-74
2020/12/04 03:10:08;;;;;;;0.28;0.20;;;7.80;99.90;;;;;;5062220;28;20025;-74
2020/12/04 03:12:35;;;;;;;1.98;0.35;;;7.80;99.90;;;;;;5057192;28;20033;-74
2020/12/04 03:15:01;;;;;;;0.13;0.13;;;7.80;99.90;;;;;;5055230;28;20032;-73
2020/12/04 03:17:27;;;;;;;0.17;0.17;;;7.80;99.90;;;;;;5056304;28;20056;-73
2020/12/04 03:19:54;;;;;;;0.20;0.17;;;7.80;99.90;;;;;;5059847;28;20023;-73
2020/12/04 03:22:20;;;;;;;1.10;0.28;;;7.80;99.90;;;;;;5059031;28;20031;-72
2020/12/04 03:24:45;;;;;;;0.20;0.10;;;7.90;99.90;;;;;;5056421;28;20033;-74
2020/12/04 03:27:11;;;;;;;1.10;0.20;;;7.90;99.90;;;;;;5054364;28;20021;-74
2020/12/04 03:29:37;;;;;;;1.20;0.20;;;7.90;99.90;;;;;;5058910;28;20025;-74
2020/12/04 03:32:02;;;;;;;0.50;0.30;;;7.90;99.90;;;;;;5054505;28;20131;-72
2020/12/04 03:34:28;;;;;;;0.98;0.20;;;7.90;99.90;;;;;;5063220;28;20033;-75
2020/12/04 03:36:54;;;;;;;0.22;0.20;;;7.90;99.90;;;;;;5056273;28;20024;-74
2020/12/04 03:39:19;;;;;;;0.20;0.20;;;7.90;99.90;;;;;;5054423;28;20112;-74
2020/12/04 03:41:45;;;;;;;0.80;0.17;;;8.00;99.90;;;;;;5056819;28;20545;-75
2020/12/04 03:44:10;;;;;;;0.20;0.20;;;8.00;99.90;;;;;;5054485;28;20033;-75
2020/12/04 03:46:36;;;;;;;0.30;0.28;;;8.00;99.90;;;;;;5055312;28;20025;-75
2020/12/04 03:49:01;;;;;;;0.40;0.40;;;7.90;99.90;;;;;;5052953;28;20040;-74
2020/12/04 03:51:27;;;;;;;0.40;0.30;;;7.90;99.90;;;;;;5055348;28;20086;-75
2020/12/04 03:53:53;;;;;;;0.60;0.30;;;8.00;99.90;;;;;;5054447;28;20032;-74
2020/12/04 03:56:18;;;;;;;1.75;0.30;;;8.00;99.90;;;;;;5058756;28;20465;-75
2020/12/04 03:58:44;;;;;;;0.57;0.50;;;8.00;99.90;;;;;;5054464;28;20140;-74
2020/12/04 04:01:09;;;;;;;0.30;0.30;;;8.00;99.90;;;;;;5061877;28;20025;-74
2020/12/04 04:03:35;;;;;;;0.65;0.30;;;8.10;99.90;;;;;;5056131;28;20022;-74
2020/12/04 04:06:00;;;;;;;0.63;0.30;;;8.10;99.90;;;;;;5053212;28;20028;-72
2020/12/04 04:08:26;;;;;;;0.30;0.30;;;8.10;99.90;;;;;;5056315;28;20040;-73
2020/12/04 04:10:52;;;;;;;0.20;0.20;;;8.20;99.90;;;;;;5054410;28;20143;-73
2020/12/04 04:13:17;;;;;;;1.40;0.40;;;8.20;99.90;;;;;;5064619;28;20038;-74
2020/12/04 04:15:43;;;;;;;0.30;0.30;;;8.20;99.90;;;;;;5051776;28;21126;-73
2020/12/04 04:18:09;;;;;;;0.98;0.35;;;8.20;99.90;;;;;;5059100;28;20029;-73
2020/12/04 04:20:34;;;;;;;0.63;0.47;;;8.20;99.90;;;;;;5055086;28;20044;-72
2020/12/04 04:23:00;;;;;;;1.80;0.30;;;8.30;99.90;;;;;;5063022;28;20079;-72
2020/12/04 04:25:25;;;;;;;1.60;0.43;;;8.20;99.90;;;;;;5056294;28;20428;-73
2020/12/04 04:27:51;;;;;;;0.55;0.40;;;8.20;99.90;;;;;;5057976;28;20033;-73
2020/12/04 04:30:16;;;;;;;1.58;0.30;;;8.20;99.90;;;;;;5059318;28;20458;-74
2020/12/04 04:32:42;;;;;;;0.30;0.28;;;8.30;99.90;;;;;;5056437;28;20082;-74
2020/12/04 04:35:08;;;;;;;0.38;0.38;;;8.30;99.90;;;;;;5061832;28;20115;-74
2020/12/04 04:37:33;;;;;;;0.40;0.40;;;8.30;99.90;;;;;;5061292;28;20039;-73
2020/12/04 04:39:59;;;;;;;0.35;0.35;;;8.30;99.90;;;;;;5063083;28;20029;-74
2020/12/04 04:42:25;;;;;;;0.55;0.50;;;8.40;99.90;;;;;;5065206;28;20541;-71
2020/12/04 04:44:51;;;;;;;0.70;0.50;;;8.30;99.90;;;;;;5070391;28;20024;-73
2020/12/04 04:47:23;;;;;;;0.45;0.20;;;8.30;99.90;;;;;;5062238;28;20025;-74
2020/12/04 04:49:50;;;;;;;;;;;8.30;99.90;;;;;;5063913;28;20124;-73
2020/12/04 04:52:16;;;;;;;0.30;0.30;;;8.30;99.90;;;;;;5069205;28;19904;-74
2020/12/04 04:54:45;;;;;;;0.50;0.38;;;8.40;99.90;;;;;;5062805;28;20075;-73
2020/12/04 04:57:11;;;;;;;0.73;0.50;;;8.40;99.90;;;;;;5057992;28;20013;-73
2020/12/04 04:59:37;;;;;;;1.67;0.40;;;8.50;99.90;;;;;;5060721;28;20048;-74
2020/12/04 05:02:03;;;;;;;1.55;0.40;;;8.30;99.90;;;;;;5063316;28;20470;-74
2020/12/04 05:04:50;;;;;;;0.85;0.70;;;8.40;99.90;;;;;;5055061;28;20024;-74
2020/12/04 05:07:17;;;;;;;1.30;0.40;;;8.40;99.90;;;;;;5059180;28;20016;-73
2020/12/04 05:09:43;;;;;;;0.55;0.38;;;8.40;99.90;;;;;;5061691;28;20401;-74
2020/12/04 05:12:09;;;;;;;0.40;0.35;;;8.50;99.90;;;;;;5061981;28;20443;-74
2020/12/04 05:14:35;;;;;;;0.70;0.47;;;8.50;99.90;;;;;;5059911;28;20029;-75
2020/12/04 05:17:07;;;;;;;0.60;0.45;;;8.50;99.90;;;;;;5060882;28;20021;-74
2020/12/04 05:19:36;;;;;;;0.60;0.47;;;8.40;99.90;;;;;;5062857;28;20059;-74
2020/12/04 05:22:16;;;;;;;0.52;0.43;;;8.40;99.90;;;;;;5058679;28;20028;-75
2020/12/04 05:24:43;;;;;;;0.70;0.50;;;8.50;99.90;;;;;;5060353;28;20122;-75
2020/12/04 05:27:28;;;;;;;1.10;0.40;;;8.50;99.90;;;;;;5057557;28;20476;-74
2020/12/04 05:29:58;;;;;;;1.02;0.55;;;8.60;99.90;;;;;;5057191;28;20016;-72
2020/12/04 05:32:25;;;;;;;0.57;0.47;;;8.50;99.90;;;;;;5059484;28;20373;-75
2020/12/04 05:35:05;;;;;;;1.23;0.50;;;8.60;99.90;;;;;;5060624;28;20032;-75
2020/12/04 05:37:31;;;;;;;1.58;0.88;;;8.60;99.90;;;;;;5071487;28;20023;-74
2020/12/04 05:39:56;;;;;;;1.20;0.40;;;8.60;99.90;;;;;;5058984;28;20040;-75
2020/12/04 05:42:36;;;;;;;2.05;0.30;;;8.60;99.90;;;;;;5060429;28;20029;-75
2020/12/04 05:45:04;;;;;;;0.75;0.40;;;8.70;99.90;;;;;;5061664;28;20044;-74
2020/12/04 05:47:43;;;;;;;0.77;0.30;;;8.70;99.90;;;;;;5063590;28;20351;-75
2020/12/04 05:50:11;;;;;;;1.08;0.50;;;8.70;99.90;;;;;;5063646;28;20484;-75
2020/12/04 05:52:38;;;;;;;1.75;0.73;;;8.80;99.90;;;;;;5056214;28;20033;-75
2020/12/04 05:55:05;;;;;;;0.52;0.30;;;8.70;99.90;;;;;;5060805;28;20367;-75
2020/12/04 05:57:46;;;;;;;2.13;0.40;;;8.80;99.90;;;;;;5055622;28;20029;-74
2020/12/04 06:00:14;;;;;;;2.20;0.50;;;8.70;99.90;;;;;;5059088;28;20394;-74
2020/12/04 06:02:40;;;;;;;0.52;0.30;;;8.70;99.90;;;;;;5059008;28;20036;-74
2020/12/04 06:05:09;;;;;;;1.30;0.40;;;8.80;99.90;;;;;;5056800;28;20020;-75
2020/12/04 06:07:35;;;;;;;1.25;0.20;;;8.80;99.90;;;;;;5054544;28;20025;-74
2020/12/04 06:10:01;;;;;;;0.93;0.28;;;8.80;99.90;;;;;;5058496;28;20516;-75
2020/12/04 06:12:26;;;;;;;2.67;0.32;;;8.80;99.90;;;;;;5054939;28;20118;-75
2020/12/04 06:14:52;;;;;;;1.38;0.20;;;8.80;99.90;;;;;;5054823;28;20055;-71
2020/12/04 06:17:18;;;;;;;0.22;0.20;;;8.80;99.90;;;;;;5055675;28;20093;-72
2020/12/04 06:19:45;;;;;;;2.20;0.35;;;8.80;99.90;;;;;;5061047;28;20040;-72
2020/12/04 06:22:18;;;;;;;0.35;0.10;;;8.90;99.90;;;;;;5059524;28;20355;-72
2020/12/04 06:24:55;;;;;;;1.27;0.25;;;8.90;99.90;;;;;;5063214;28;20035;-72
2020/12/04 06:27:36;;;;;;;0.35;0.15;;;8.90;99.90;;;;;;5056187;28;20033;-72
2020/12/04 06:30:04;;;;;;;0.85;0.20;;;8.90;99.90;;;;;;5053787;28;20036;-73
2020/12/04 06:32:41;;;;;;;3.25;0.25;;;8.90;99.90;;;;;;5060142;28;20051;-73
2020/12/04 06:35:08;;;;;;;0.68;0.20;;;8.90;99.90;;;;;;5065663;28;20070;-75
2020/12/04 06:37:42;;;;;;;0.20;0.10;;;8.90;99.90;;;;;;5064139;28;20536;-72
2020/12/04 06:40:30;;;;;;;2.25;0.47;;;9.00;99.90;;;;;;5066307;28;20078;-73
2020/12/04 06:42:57;;;;;;;0.13;0.10;;;8.90;99.90;;;;;;5059615;28;20028;-73
2020/12/04 06:45:24;;;;;;;0.52;0.38;;;8.90;99.90;;;;;;5058366;28;20021;-73
2020/12/04 06:48:16;;;;;;;2.58;0.30;;;8.80;99.90;;;;;;5055614;28;20029;-74
2020/12/04 06:50:43;;;;;;;1.20;0.20;;;8.80;99.90;;;;;;5055835;28;20029;-72
2020/12/04 06:53:11;;;;;;;1.38;0.20;;;8.90;99.90;;;;;;5054169;28;20436;-74
2020/12/04 06:55:38;;;;;;;1.15;0.52;;;8.80;99.90;;;;;;5054111;28;20017;-75
2020/12/04 06:58:04;;;;;;;2.92;0.28;;;8.80;99.90;;;;;;5056029;28;20025;-74
2020/12/04 07:00:30;;;;;;;1.55;0.10;;;8.80;99.90;;;;;;5054221;28;20044;-75
2020/12/04 07:02:57;;;;;;;0.75;0.30;;;8.90;99.90;;;;;;5056699;28;20067;-75
2020/12/04 07:05:28;;;;;;;2.28;0.40;;;8.90;99.90;;;;;;5055512;28;20412;-75
2020/12/04 07:08:06;;;;;;;0.20;0.10;;;8.90;99.90;;;;;;5054480;28;20017;-74
2020/12/04 07:10:33;;;;;;;1.17;0.22;;;8.80;99.90;;;;;;5053548;28;20025;-75
2020/12/04 07:13:00;;;;;;;0.57;0.38;;;8.80;99.90;;;;;;5052346;28;20033;-74
2020/12/04 07:15:27;;;;;;;0.32;0.10;;;8.70;99.90;;;;;;5054768;28;20103;-73
2020/12/04 07:17:53;;;;;;;1.58;0.30;;;8.80;99.90;;;;;;5051762;28;20492;-74
2020/12/04 07:20:19;;;;;;;0.90;0.20;;;8.80;99.90;;;;;;5056369;28;20025;-74
2020/12/04 07:22:44;;;;;;;1.38;0.40;;;8.80;99.90;;;;;;5053806;28;20023;-74
2020/12/04 07:25:10;;;;;;;0.65;0.25;;;8.80;99.90;;;;;;5054254;28;20032;-72
2020/12/04 07:27:36;;;;;;;0.28;0.25;;;8.70;99.90;;;;;;5053213;28;20025;-75
2020/12/04 07:30:13;;;;;;;0.52;0.20;;;8.80;99.90;;;;;;5052297;28;20032;-75
2020/12/04 07:32:38;;;;;;;0.10;0.10;;;8.90;99.90;;;;;;5055956;28;20032;-73
2020/12/04 07:35:04;;;;;;;1.52;0.30;;;8.80;99.90;;;;;;5053671;28;20561;-73
2020/12/04 07:37:30;;;;;;;0.25;0.20;;;8.80;99.90;;;;;;5055994;28;20377;-73
2020/12/04 07:39:55;;;;;;;0.55;0.20;;;8.70;99.90;;;;;;5064338;28;20039;-72
2020/12/04 07:42:22;;;;;;;0.55;0.30;;;8.70;99.90;;;;;;5061398;28;20382;-72
2020/12/04 07:44:52;;;;;;;0.30;0.13;;;8.70;99.90;;;;;;5059636;28;20048;-75
2020/12/04 07:47:18;;;;;;;1.83;0.68;;;8.70;99.90;;;;;;5057887;28;20118;-74
2020/12/04 07:49:53;;;;;;;0.90;0.30;;;8.70;99.90;;;;;;5058529;28;20071;-75
2020/12/04 07:52:35;;;;;;;0.77;0.20;;;8.70;99.90;;;;;;5057126;28;20044;-75
2020/12/04 07:55:06;;;;;;;1.60;0.30;;;8.70;99.90;;;;;;5052812;28;20024;-75
2020/12/04 07:58:04;;;;;;;0.47;0.40;;;8.70;99.90;;;;;;5054525;28;20104;-73
2020/12/04 08:00:32;;;;;;;0.45;0.30;;;8.70;99.90;;;;;;5057043;28;20370;-74
2020/12/04 08:03:10;;;;;;;0.20;0.20;;;8.70;99.90;;;;;;5056256;28;20086;-74
2020/12/04 08:05:36;;;;;;;5.38;0.57;;;8.60;99.90;;;;;;5059209;28;20135;-75
2020/12/04 08:08:02;;;;;;;0.30;0.22;;;8.60;99.90;;;;;;5056687;28;20389;-75
2020/12/04 08:10:28;;;;;;;0.95;0.73;;;8.60;99.90;;;;;;5055126;28;20025;-73
2020/12/04 08:12:56;;;;;;;2.72;1.85;;;8.50;99.90;;;;;;5051078;28;20045;-75
2020/12/04 08:15:21;;;;;;;1.70;1.15;;;8.40;99.90;;;;;;5052617;28;20029;-75
2020/12/04 08:17:47;;;;;;;3.78;3.22;;;8.40;99.90;;;;;;5039490;28;20645;-71
2020/12/04 08:20:17;;;;;;;0.73;0.30;;;8.40;99.90;;;;;;5060167;28;20025;-72
2020/12/04 08:22:48;;;;;;;0.40;0.30;;;8.40;99.90;;;;;;5057529;28;20439;-71
2020/12/04 08:25:14;;;;;;;2.72;2.17;;;8.40;99.90;;;;;;5060736;28;20031;-72
2020/12/04 08:27:43;;;;;;;2.22;1.20;;;8.50;99.90;;;;;;5061128;28;20033;-71
2020/12/04 08:30:18;;;;;;;0.98;0.40;;;8.50;99.90;;;;;;5060931;28;20083;-71
2020/12/04 08:32:47;;;;;;;1.05;0.30;;;8.50;99.90;;;;;;5054548;28;20039;-71
2020/12/04 08:35:18;;;;;;;1.45;0.40;;;8.50;99.90;;;;;;5051636;28;20036;-71
2020/12/04 08:37:49;;;;;;;0.40;0.40;;;8.50;99.90;;;;;;5057528;28;20028;-71
2020/12/04 08:40:22;;;;;;;0.30;0.30;;;8.50;99.90;;;;;;5055601;28;20477;-71
2020/12/04 08:42:48;;;;;;;1.75;0.45;;;8.50;99.90;;;;;;5051762;28;20382;-71
2020/12/04 08:45:14;;;;;;;2.10;0.50;;;8.50;99.90;;;;;;5053898;28;20029;-72
2020/12/04 08:47:41;;;;;;;2.20;1.00;;;8.50;99.90;;;;;;5053237;28;20425;-72
2020/12/04 08:50:10;;;;;;;0.95;0.95;;;8.60;99.90;;;;;;5051042;28;20072;-73
2020/12/04 08:52:42;;;;;;;1.17;0.52;;;8.60;99.90;;;;;;5054140;28;20029;-71
2020/12/04 08:55:09;;;;;;;0.30;0.30;;;8.60;99.90;;;;;;5057359;28;20053;-71
2020/12/04 08:57:35;;;;;;;51.88;34.95;;;8.60;99.90;;;;;;5054114;28;20021;-72
2020/12/04 09:00:00;;;;;;;1.15;1.00;;;8.60;99.90;;;;;;5055547;28;20036;-72
2020/12/04 09:02:26;;;;;;;2.83;0.52;;;8.60;99.90;;;;;;5053468;28;20017;-73
2020/12/04 09:04:52;;;;;;;2.58;2.20;;;8.60;99.90;;;;;;5054618;28;20503;-72
2020/12/04 09:07:18;;;;;;;0.52;0.22;;;8.50;99.90;;;;;;5053822;28;20021;-72
2020/12/04 09:09:43;;;;;;;1.17;0.30;;;8.50;99.90;;;;;;5053452;28;20044;-72
2020/12/04 09:12:09;;;;;;;1.63;0.80;;;8.60;99.90;;;;;;5051515;28;20067;-72
2020/12/04 09:14:35;;;;;;;30.95;1.88;;;8.70;99.90;;;;;;5053848;28;20548;-71
2020/12/04 09:17:00;;;;;;;1.45;0.75;;;8.70;99.90;;;;;;5048214;28;20017;-72
2020/12/04 09:19:26;;;;;;;0.90;0.32;;;8.60;99.90;;;;;;5054859;28;20147;-71
2020/12/04 09:21:51;;;;;;;1.77;0.40;;;8.70;99.90;;;;;;5058128;28;20036;-72
2020/12/04 09:24:17;;;;;;;1.65;0.22;;;8.60;99.90;;;;;;5066137;28;20025;-71
2020/12/04 09:26:42;;;;;;;1.05;0.40;;;8.60;99.90;;;;;;5054933;28;20473;-71
2020/12/04 09:29:08;;;;;;;0.40;0.30;;;8.60;99.90;;;;;;5062091;28;20102;-71
2020/12/04 09:31:33;;;;;;;2.72;0.30;;;8.60;99.90;;;;;;5064101;28;20036;-71
2020/12/04 09:33:59;;;;;;;0.52;0.17;;;8.70;99.90;;;;;;5064316;28;20041;-71
2020/12/04 09:36:25;;;;;;;0.65;0.40;;;8.70;99.90;;;;;;5065581;28;20059;-71
2020/12/04 09:38:50;;;;;;;0.77;0.60;;;8.70;99.90;;;;;;5064194;28;20035;-72
2020/12/04 09:41:16;;;;;;;0.90;0.40;;;8.70;99.90;;;;;;5057985;28;20039;-72
2020/12/04 09:43:42;;;;;;;2.00;0.40;;;8.80;99.90;;;;;;5064841;28;20117;-71
2020/12/04 09:46:07;;;;;;;0.80;0.40;;;8.70;99.90;;;;;;5068298;28;20141;-72
2020/12/04 09:48:34;;;;;;;1.88;0.50;;;8.80;99.90;;;;;;5058601;28;20032;-71
2020/12/04 09:50:59;;;;;;;0.88;0.88;;;8.70;99.90;;;;;;5062748;28;20021;-71
2020/12/04 09:53:25;;;;;;;0.95;0.30;;;8.70;99.90;;;;;;5058546;28;20393;-72
2020/12/04 09:55:51;;;;;;;0.85;0.50;;;8.60;99.90;;;;;;5056343;28;20029;-72
2020/12/04 09:58:16;;;;;;;0.75;0.30;;;8.70;99.90;;;;;;5060467;28;20035;-72
2020/12/04 10:00:42;;;;;;;0.40;0.40;;;8.70;99.90;;;;;;5058140;28;20029;-71
2020/12/04 10:03:08;;;;;;;1.08;0.40;;;8.70;99.90;;;;;;5057423;28;20021;-71
2020/12/04 10:05:33;;;;;;;0.55;0.28;;;8.70;99.90;;;;;;5059895;28;20477;-71
2020/12/04 10:07:59;;;;;;;0.20;0.20;;;8.70;99.90;;;;;;5059467;28;20043;-72
2020/12/04 10:10:25;;;;;;;1.00;0.50;;;8.70;99.90;;;;;;5062039;28;20025;-72
2020/12/04 10:12:50;;;;;;;1.35;0.35;;;8.70;99.90;;;;;;5060905;28;20055;-71
2020/12/04 10:15:16;;;;;;;0.30;0.30;;;8.70;99.90;;;;;;5056365;28;20069;-71
2020/12/04 10:17:41;;;;;;;0.45;0.20;;;8.80;99.90;;;;;;5057297;28;20366;-71
2020/12/04 10:20:07;;;;;;;0.50;0.28;;;8.80;99.90;;;;;;5056996;28;20120;-71
2020/12/04 10:22:32;;;;;;;0.40;0.40;;;8.80;99.90;;;;;;5060954;28;20642;-72
2020/12/04 10:24:58;;;;;;;0.57;0.30;;;8.80;99.90;;;;;;5056964;28;20036;-72
2020/12/04 10:27:23;;;;;;;0.47;0.43;;;8.70;99.90;;;;;;5055362;28;20025;-72
2020/12/04 10:29:49;;;;;;;0.60;0.30;;;8.80;99.90;;;;;;5055239;28;20033;-72
2020/12/04 10:32:15;;;;;;;2.45;0.30;;;8.70;99.90;;;;;;5053243;28;20074;-72
2020/12/04 10:34:41;;;;;;;3.50;0.60;;;8.70;99.90;;;;;;5055604;28;20040;-72
2020/12/04 10:37:06;;;;;;;1.40;1.02;;;8.90;99.90;;;;;;5055923;28;20069;-72
2020/12/04 10:39:32;;;;;;;0.63;0.52;;;8.80;99.90;;;;;;5055123;28;20060;-72
2020/12/04 10:41:58;;;;;;;0.63;0.30;;;8.80;99.90;;;;;;5052590;28;20025;-71
2020/12/04 10:44:24;;;;;;;0.47;0.40;;;8.70;99.90;;;;;;5055848;28;20028;-72
2020/12/04 10:46:49;;;;;;;1.08;0.57;;;8.70;99.90;;;;;;5050745;28;20029;-72
2020/12/04 10:49:15;;;;;;;2.83;2.60;;;8.70;99.90;;;;;;5055440;28;20025;-72
2020/12/04 10:51:41;;;;;;;24.33;16.08;;;8.70;99.90;;;;;;5052044;28;20031;-71
2020/12/04 10:54:06;;;;;;;1.75;1.17;;;8.80;99.90;;;;;;5055649;28;20125;-72
2020/12/04 10:56:33;;;;;;;2.83;1.92;;;8.80;99.90;;;;;;5056161;28;20029;-72
2020/12/04 10:58:58;;;;;;;3.28;0.75;;;8.90;99.90;;;;;;5056196;28;20028;-71
2020/12/04 11:01:32;;;;;;;1.25;0.82;;;8.90;99.90;;;;;;5052043;28;20022;-75
2020/12/04 11:06:50;;;;;;;0.77;0.40;;;8.90;99.90;;;;;;5042819;28;20127;-74
2020/12/04 11:09:15;;;;;;;2.10;0.90;;;9.00;99.90;;;;;;5056265;28;20123;-72
2020/12/04 11:11:41;;;;;;;1.30;1.00;;;8.90;99.90;;;;;;5061017;28;20037;-72
2020/12/04 11:14:06;;;;;;;1.80;1.63;;;8.90;99.90;;;;;;5057798;28;20048;-71
2020/12/04 11:16:32;;;;;;;1.77;0.60;;;9.00;99.90;;;;;;5062641;28;20503;-73
2020/12/04 11:18:58;;;;;;;1.75;0.50;;;9.00;99.90;;;;;;5052132;28;20029;-72
2020/12/04 11:21:28;;;;;;;0.60;0.43;;;9.00;99.90;;;;;;5063056;28;20385;-72
2020/12/04 11:23:54;;;;;;;1.10;0.40;;;9.10;99.90;;;;;;5063095;28;20032;-72
2020/12/04 11:26:19;;;;;;;1.05;0.50;;;9.00;99.90;;;;;;5054680;28;20421;-72
2020/12/04 11:28:45;;;;;;;1.83;0.60;;;8.90;99.90;;;;;;5057356;28;20064;-72
2020/12/04 11:31:10;;;;;;;2.80;0.60;;;8.90;99.90;;;;;;5060599;28;20025;-72
2020/12/04 11:33:36;;;;;;;1.67;0.55;;;8.90;99.90;;;;;;5061510;28;20063;-73
2020/12/04 11:36:01;;;;;;;0.85;0.70;;;9.00;99.90;;;;;;5066116;28;20038;-72
2020/12/04 11:38:27;;;;;;;0.80;0.50;;;8.90;99.90;;;;;;5063882;28;20056;-72
2020/12/04 11:40:53;;;;;;;3.40;1.30;;;8.90;99.90;;;;;;5052880;28;20067;-72
2020/12/04 11:43:18;;;;;;;1.75;0.68;;;9.00;99.90;;;;;;5059968;28;20069;-73
2020/12/04 11:45:44;;;;;;;2.63;1.10;;;9.00;99.90;;;;;;5056208;28;20424;-72
2020/12/04 11:48:10;;;;;;;2.58;0.50;;;9.10;99.90;;;;;;5057065;28;20035;-71
2020/12/04 11:50:36;;;;;;;0.30;0.28;;;9.10;99.90;;;;;;5055339;28;20026;-72
2020/12/04 11:53:02;;;;;;;0.88;0.68;;;9.10;99.90;;;;;;5054025;28;20032;-72
2020/12/04 11:55:27;;;;;;;1.83;0.50;;;9.10;99.90;;;;;;5057713;28;20362;-72
2020/12/04 11:57:53;;;;;;;0.90;0.25;;;9.10;99.90;;;;;;5058024;28;20385;-71
2020/12/04 12:00:20;;;;;;;0.68;0.68;;;9.00;99.90;;;;;;5066440;28;20510;-73
2020/12/04 12:02:46;;;;;;;0.93;0.85;;;8.90;99.90;;;;;;5064305;28;20032;-71
2020/12/04 12:05:12;;;;;;;0.52;0.40;;;9.00;99.90;;;;;;5066052;28;20029;-71
2020/12/04 12:07:38;;;;;;;2.05;0.40;;;8.90;99.90;;;;;;5055243;28;20020;-71
2020/12/04 12:10:04;;;;;;;2.10;0.45;;;8.80;99.90;;;;;;5059336;28;20393;-71
2020/12/04 12:12:29;;;;;;;0.95;0.30;;;8.80;99.90;;;;;;5064578;28;20025;-71
2020/12/04 12:14:55;;;;;;;0.82;0.82;;;8.80;99.90;;;;;;5064758;28;20492;-71
2020/12/04 12:17:21;;;;;;;1.20;1.10;;;8.80;99.90;;;;;;5055690;28;20017;-72
2020/12/04 12:19:46;;;;;;;0.30;0.20;;;8.80;99.90;;;;;;5059388;28;20029;-71
2020/12/04 12:22:12;;;;;;;1.30;0.50;;;8.90;99.90;;;;;;5054805;28;20031;-71
2020/12/04 12:24:42;;;;;;;0.85;0.50;;;8.90;99.90;;;;;;5053851;28;20039;-71
2020/12/04 12:27:09;;;;;;;0.20;0.17;;;8.90;99.90;;;;;;5061423;28;20009;-72
2020/12/04 12:29:36;;;;;;;2.63;0.40;;;8.90;99.90;;;;;;5060186;28;20029;-72
2020/12/04 12:32:02;;;;;;;0.65;0.30;;;8.90;99.90;;;;;;5061408;28;20029;-71
2020/12/04 12:37:13;;;;;;;0.65;0.28;;;9.00;99.90;;;;;;5061444;28;20120;-71
2020/12/04 12:39:39;;;;;;;0.28;0.20;;;9.00;99.90;;;;;;5065238;28;20037;-72
2020/12/04 12:42:07;;;;;;;1.17;0.50;;;9.00;99.90;;;;;;5063362;28;20021;-72
2020/12/04 12:44:33;;;;;;;0.98;0.40;;;9.10;99.90;;;;;;5054302;28;20116;-71
2020/12/04 12:46:59;;;;;;;0.40;0.20;;;9.10;99.90;;;;;;5055983;28;20032;-72
2020/12/04 12:49:25;;;;;;;3.38;0.52;;;9.00;99.90;;;;;;5056925;28;20385;-72
2020/12/04 12:51:50;;;;;;;1.35;0.45;;;9.00;99.90;;;;;;5054788;28;20025;-70
2020/12/04 12:54:16;;;;;;;1.10;0.40;;;9.10;99.90;;;;;;5059283;28;20470;-70
2020/12/04 12:56:46;;;;;;;1.45;0.50;;;9.10;99.90;;;;;;5056161;28;20108;-71
2020/12/04 12:59:12;;;;;;;0.57;0.38;;;9.00;99.90;;;;;;5062423;28;20111;-70
2020/12/04 13:01:37;;;;;;;1.23;0.40;;;9.00;99.90;;;;;;5064543;28;20450;-71
2020/12/04 13:04:03;;;;;;;3.15;0.40;;;9.10;99.90;;;;;;5061525;28;20029;-70